sensor_id;sensor_type;location;lat;lon;timestamp;P1;durP1;ratioP1;P2;durP2;ratioP2
65924;SDS011;66010;52.084;5.412;2023-09-12T00:02:12;17.63;;;9.60;;
65924;SDS011;66010;52.084;5.412;2023-09-12T00:04:38;15.45;;;9.57;;
65924;SDS011;66010;52.084;5.412;2023-09-12T00:07:05;18.25;;;10.15;;
65924;SDS011;66010;52.084;5.412;2023-09-12T00:09:31;15.50;;;10.05;;
65924;SDS011;66010;52.084;5.412;2023-09-12T00:11:58;13.13;;;8.52;;
65924;SDS011;66010;52.084;5.412;2023-09-12T00:14:25;15.90;;;9.23;;
65924;SDS011;66010;52.084;5.412;2023-09-12T00:16:52;15.73;;;9.93;;
65924;SDS011;66010;52.084;5.412;2023-09-12T00:19:22;17.42;;;11.02;;
65924;SDS011;66010;52.084;5.412;2023-09-12T00:21:48;15.35;;;9.25;;
65924;SDS011;66010;52.084;5.412;2023-09-12T00:24:15;15.45;;;10.30;;
65924;SDS011;66010;52.084;5.412;2023-09-12T00:26:41;17.17;;;10.43;;
65924;SDS011;66010;52.084;5.412;2023-09-12T00:29:08;15.88;;;9.98;;
65924;SDS011;66010;52.084;5.412;2023-09-12T00:31:34;16.20;;;10.25;;
65924;SDS011;66010;52.084;5.412;2023-09-12T00:34:01;14.70;;;9.30;;
65924;SDS011;66010;52.084;5.412;2023-09-12T00:36:28;16.23;;;10.45;;
65924;SDS011;66010;52.084;5.412;2023-09-12T00:38:56;18.05;;;9.90;;
65924;SDS011;66010;52.084;5.412;2023-09-12T00:41:23;18.27;;;11.13;;
65924;SDS011;66010;52.084;5.412;2023-09-12T00:43:49;18.38;;;10.70;;
65924;SDS011;66010;52.084;5.412;2023-09-12T00:46:18;14.70;;;9.52;;
65924;SDS011;66010;52.084;5.412;2023-09-12T00:48:45;18.08;;;11.52;;
65924;SDS011;66010;52.084;5.412;2023-09-12T00:51:13;22.08;;;11.80;;
65924;SDS011;66010;52.084;5.412;2023-09-12T00:53:40;25.50;;;13.68;;
65924;SDS011;66010;52.084;5.412;2023-09-12T00:56:08;20.80;;;11.88;;
65924;SDS011;66010;52.084;5.412;2023-09-12T00:58:34;24.55;;;13.60;;
65924;SDS011;66010;52.084;5.412;2023-09-12T01:01:01;20.45;;;12.57;;
65924;SDS011;66010;52.084;5.412;2023-09-12T01:03:28;16.25;;;10.43;;
65924;SDS011;66010;52.084;5.412;2023-09-12T01:05:56;16.63;;;10.63;;
65924;SDS011;66010;52.084;5.412;2023-09-12T01:08:23;17.67;;;11.85;;
65924;SDS011;66010;52.084;5.412;2023-09-12T01:10:50;16.27;;;10.10;;
65924;SDS011;66010;52.084;5.412;2023-09-12T01:13:19;16.60;;;10.48;;
65924;SDS011;66010;52.084;5.412;2023-09-12T01:15:45;16.13;;;9.52;;
65924;SDS011;66010;52.084;5.412;2023-09-12T01:18:12;18.95;;;9.65;;
65924;SDS011;66010;52.084;5.412;2023-09-12T01:20:40;17.67;;;9.65;;
65924;SDS011;66010;52.084;5.412;2023-09-12T01:28:09;17.98;;;11.70;;
65924;SDS011;66010;52.084;5.412;2023-09-12T01:30:36;16.00;;;10.68;;
65924;SDS011;66010;52.084;5.412;2023-09-12T01:33:05;17.45;;;10.25;;
65924;SDS011;66010;52.084;5.412;2023-09-12T01:35:33;15.90;;;8.75;;
65924;SDS011;66010;52.084;5.412;2023-09-12T01:38:00;14.77;;;8.60;;
65924;SDS011;66010;52.084;5.412;2023-09-12T01:42:53;12.88;;;8.10;;
65924;SDS011;66010;52.084;5.412;2023-09-12T01:45:21;12.95;;;8.15;;
65924;SDS011;66010;52.084;5.412;2023-09-12T01:47:49;13.93;;;8.30;;
65924;SDS011;66010;52.084;5.412;2023-09-12T01:50:16;12.50;;;7.57;;
65924;SDS011;66010;52.084;5.412;2023-09-12T01:52:43;11.15;;;7.43;;
65924;SDS011;66010;52.084;5.412;2023-09-12T01:55:10;11.48;;;7.70;;
65924;SDS011;66010;52.084;5.412;2023-09-12T01:57:37;11.23;;;6.63;;
65924;SDS011;66010;52.084;5.412;2023-09-12T02:00:04;16.17;;;10.57;;
65924;SDS011;66010;52.084;5.412;2023-09-12T02:02:31;14.80;;;9.52;;
65924;SDS011;66010;52.084;5.412;2023-09-12T02:07:27;13.38;;;8.02;;
65924;SDS011;66010;52.084;5.412;2023-09-12T02:09:55;12.82;;;7.90;;
65924;SDS011;66010;52.084;5.412;2023-09-12T02:12:22;12.30;;;7.57;;
65924;SDS011;66010;52.084;5.412;2023-09-12T02:14:48;14.32;;;9.85;;
65924;SDS011;66010;52.084;5.412;2023-09-12T02:17:15;11.27;;;6.55;;
65924;SDS011;66010;52.084;5.412;2023-09-12T02:19:42;10.73;;;6.72;;
65924;SDS011;66010;52.084;5.412;2023-09-12T02:22:08;10.05;;;6.75;;
65924;SDS011;66010;52.084;5.412;2023-09-12T02:24:35;10.95;;;6.72;;
65924;SDS011;66010;52.084;5.412;2023-09-12T02:27:01;10.98;;;6.70;;
65924;SDS011;66010;52.084;5.412;2023-09-12T02:29:28;13.93;;;8.93;;
65924;SDS011;66010;52.084;5.412;2023-09-12T02:31:55;10.93;;;6.65;;
65924;SDS011;66010;52.084;5.412;2023-09-12T02:34:22;12.63;;;7.35;;
65924;SDS011;66010;52.084;5.412;2023-09-12T02:36:48;13.50;;;8.38;;
65924;SDS011;66010;52.084;5.412;2023-09-12T02:39:15;12.25;;;8.27;;
65924;SDS011;66010;52.084;5.412;2023-09-12T02:41:42;12.27;;;7.45;;
65924;SDS011;66010;52.084;5.412;2023-09-12T02:44:08;10.93;;;6.53;;
65924;SDS011;66010;52.084;5.412;2023-09-12T02:46:36;11.82;;;7.25;;
65924;SDS011;66010;52.084;5.412;2023-09-12T02:49:02;9.85;;;5.72;;
65924;SDS011;66010;52.084;5.412;2023-09-12T02:51:29;10.77;;;6.07;;
65924;SDS011;66010;52.084;5.412;2023-09-12T02:53:56;11.85;;;7.18;;
65924;SDS011;66010;52.084;5.412;2023-09-12T02:56:22;16.88;;;10.20;;
65924;SDS011;66010;52.084;5.412;2023-09-12T02:58:49;13.02;;;7.88;;
65924;SDS011;66010;52.084;5.412;2023-09-12T03:01:16;10.65;;;6.85;;
65924;SDS011;66010;52.084;5.412;2023-09-12T03:03:47;13.70;;;8.23;;
65924;SDS011;66010;52.084;5.412;2023-09-12T03:06:14;12.80;;;8.02;;
65924;SDS011;66010;52.084;5.412;2023-09-12T03:11:08;11.13;;;7.00;;
65924;SDS011;66010;52.084;5.412;2023-09-12T03:13:36;11.73;;;7.30;;
65924;SDS011;66010;52.084;5.412;2023-09-12T03:16:03;12.20;;;7.45;;
65924;SDS011;66010;52.084;5.412;2023-09-12T03:18:30;11.90;;;7.32;;
65924;SDS011;66010;52.084;5.412;2023-09-12T03:20:57;12.23;;;6.95;;
65924;SDS011;66010;52.084;5.412;2023-09-12T03:23:23;14.50;;;8.80;;
65924;SDS011;66010;52.084;5.412;2023-09-12T03:25:50;12.32;;;7.60;;
65924;SDS011;66010;52.084;5.412;2023-09-12T03:28:17;12.77;;;7.63;;
65924;SDS011;66010;52.084;5.412;2023-09-12T03:30:43;12.82;;;7.05;;
65924;SDS011;66010;52.084;5.412;2023-09-12T03:33:10;10.98;;;6.93;;
65924;SDS011;66010;52.084;5.412;2023-09-12T03:35:37;11.63;;;7.35;;
65924;SDS011;66010;52.084;5.412;2023-09-12T03:38:03;14.65;;;7.38;;
65924;SDS011;66010;52.084;5.412;2023-09-12T03:40:30;12.25;;;7.25;;
65924;SDS011;66010;52.084;5.412;2023-09-12T03:42:57;12.13;;;7.80;;
65924;SDS011;66010;52.084;5.412;2023-09-12T03:45:24;11.65;;;6.70;;
65924;SDS011;66010;52.084;5.412;2023-09-12T03:47:51;14.27;;;7.82;;
65924;SDS011;66010;52.084;5.412;2023-09-12T03:50:18;15.88;;;7.78;;
65924;SDS011;66010;52.084;5.412;2023-09-12T03:52:45;11.70;;;7.03;;
65924;SDS011;66010;52.084;5.412;2023-09-12T03:55:11;10.55;;;6.63;;
65924;SDS011;66010;52.084;5.412;2023-09-12T03:57:38;12.63;;;6.97;;
65924;SDS011;66010;52.084;5.412;2023-09-12T04:00:05;11.35;;;6.70;;
65924;SDS011;66010;52.084;5.412;2023-09-12T04:02:38;12.23;;;6.70;;
65924;SDS011;66010;52.084;5.412;2023-09-12T04:05:05;10.98;;;6.18;;
65924;SDS011;66010;52.084;5.412;2023-09-12T04:07:32;13.27;;;7.30;;
65924;SDS011;66010;52.084;5.412;2023-09-12T04:09:59;10.02;;;6.07;;
65924;SDS011;66010;52.084;5.412;2023-09-12T04:12:25;12.88;;;7.22;;
65924;SDS011;66010;52.084;5.412;2023-09-12T04:14:52;13.60;;;8.52;;
65924;SDS011;66010;52.084;5.412;2023-09-12T04:17:19;12.40;;;7.85;;
65924;SDS011;66010;52.084;5.412;2023-09-12T04:19:46;13.02;;;7.13;;
65924;SDS011;66010;52.084;5.412;2023-09-12T04:22:13;13.18;;;7.50;;
65924;SDS011;66010;52.084;5.412;2023-09-12T04:24:39;11.55;;;6.57;;
65924;SDS011;66010;52.084;5.412;2023-09-12T04:27:06;11.77;;;6.80;;
65924;SDS011;66010;52.084;5.412;2023-09-12T04:29:33;12.75;;;7.20;;
65924;SDS011;66010;52.084;5.412;2023-09-12T04:32:05;13.48;;;7.88;;
65924;SDS011;66010;52.084;5.412;2023-09-12T04:34:32;17.58;;;11.10;;
65924;SDS011;66010;52.084;5.412;2023-09-12T04:36:59;14.60;;;9.07;;
65924;SDS011;66010;52.084;5.412;2023-09-12T04:39:26;15.07;;;9.10;;
65924;SDS011;66010;52.084;5.412;2023-09-12T04:41:52;12.23;;;7.25;;
65924;SDS011;66010;52.084;5.412;2023-09-12T04:44:19;13.70;;;7.72;;
65924;SDS011;66010;52.084;5.412;2023-09-12T04:46:46;15.20;;;9.13;;
65924;SDS011;66010;52.084;5.412;2023-09-12T04:49:13;18.10;;;11.27;;
65924;SDS011;66010;52.084;5.412;2023-09-12T04:51:39;13.80;;;8.50;;
65924;SDS011;66010;52.084;5.412;2023-09-12T04:54:06;16.83;;;9.93;;
65924;SDS011;66010;52.084;5.412;2023-09-12T04:56:33;15.77;;;9.82;;
65924;SDS011;66010;52.084;5.412;2023-09-12T04:59:00;14.93;;;7.93;;
65924;SDS011;66010;52.084;5.412;2023-09-12T05:01:26;13.30;;;8.13;;
65924;SDS011;66010;52.084;5.412;2023-09-12T05:03:53;12.30;;;7.05;;
65924;SDS011;66010;52.084;5.412;2023-09-12T05:06:20;13.02;;;8.32;;
65924;SDS011;66010;52.084;5.412;2023-09-12T05:08:46;13.90;;;8.82;;
65924;SDS011;66010;52.084;5.412;2023-09-12T05:11:13;12.77;;;7.97;;
65924;SDS011;66010;52.084;5.412;2023-09-12T05:13:40;14.48;;;8.20;;
65924;SDS011;66010;52.084;5.412;2023-09-12T05:16:07;14.25;;;7.88;;
65924;SDS011;66010;52.084;5.412;2023-09-12T05:18:34;14.90;;;8.70;;
65924;SDS011;66010;52.084;5.412;2023-09-12T05:21:01;14.55;;;8.82;;
65924;SDS011;66010;52.084;5.412;2023-09-12T05:23:27;17.63;;;10.10;;
65924;SDS011;66010;52.084;5.412;2023-09-12T05:25:54;12.32;;;7.15;;
65924;SDS011;66010;52.084;5.412;2023-09-12T05:28:21;12.13;;;7.20;;
65924;SDS011;66010;52.084;5.412;2023-09-12T05:30:49;12.82;;;7.18;;
65924;SDS011;66010;52.084;5.412;2023-09-12T05:33:16;14.23;;;7.45;;
65924;SDS011;66010;52.084;5.412;2023-09-12T05:35:43;14.02;;;7.93;;
65924;SDS011;66010;52.084;5.412;2023-09-12T05:38:11;14.13;;;8.48;;
65924;SDS011;66010;52.084;5.412;2023-09-12T05:40:37;12.00;;;6.75;;
65924;SDS011;66010;52.084;5.412;2023-09-12T05:43:04;13.55;;;8.32;;
65924;SDS011;66010;52.084;5.412;2023-09-12T05:45:30;12.73;;;7.53;;
65924;SDS011;66010;52.084;5.412;2023-09-12T05:47:59;12.20;;;7.03;;
65924;SDS011;66010;52.084;5.412;2023-09-12T05:50:27;12.20;;;7.18;;
65924;SDS011;66010;52.084;5.412;2023-09-12T05:52:54;14.98;;;7.13;;
65924;SDS011;66010;52.084;5.412;2023-09-12T05:55:21;13.25;;;6.75;;
65924;SDS011;66010;52.084;5.412;2023-09-12T05:57:48;14.85;;;7.95;;
65924;SDS011;66010;52.084;5.412;2023-09-12T06:00:19;14.38;;;7.80;;
65924;SDS011;66010;52.084;5.412;2023-09-12T06:02:49;19.65;;;10.80;;
65924;SDS011;66010;52.084;5.412;2023-09-12T06:05:16;21.55;;;11.20;;
65924;SDS011;66010;52.084;5.412;2023-09-12T06:07:42;16.80;;;9.80;;
65924;SDS011;66010;52.084;5.412;2023-09-12T06:10:12;19.88;;;9.45;;
65924;SDS011;66010;52.084;5.412;2023-09-12T06:12:38;15.90;;;8.90;;
65924;SDS011;66010;52.084;5.412;2023-09-12T06:15:05;16.45;;;9.00;;
65924;SDS011;66010;52.084;5.412;2023-09-12T06:17:33;19.13;;;11.18;;
65924;SDS011;66010;52.084;5.412;2023-09-12T06:20:00;17.85;;;8.90;;
65924;SDS011;66010;52.084;5.412;2023-09-12T06:22:26;14.68;;;7.65;;
65924;SDS011;66010;52.084;5.412;2023-09-12T06:24:54;16.63;;;8.20;;
65924;SDS011;66010;52.084;5.412;2023-09-12T06:27:20;17.17;;;8.93;;
65924;SDS011;66010;52.084;5.412;2023-09-12T06:29:47;17.10;;;8.73;;
65924;SDS011;66010;52.084;5.412;2023-09-12T06:32:17;18.13;;;9.15;;
65924;SDS011;66010;52.084;5.412;2023-09-12T06:37:10;21.77;;;12.35;;
65924;SDS011;66010;52.084;5.412;2023-09-12T06:39:37;27.55;;;17.20;;
65924;SDS011;66010;52.084;5.412;2023-09-12T06:42:04;20.63;;;11.27;;
65924;SDS011;66010;52.084;5.412;2023-09-12T06:44:31;23.40;;;13.20;;
65924;SDS011;66010;52.084;5.412;2023-09-12T06:46:57;18.05;;;10.68;;
65924;SDS011;66010;52.084;5.412;2023-09-12T06:49:24;29.25;;;16.13;;
65924;SDS011;66010;52.084;5.412;2023-09-12T06:51:51;35.40;;;18.88;;
65924;SDS011;66010;52.084;5.412;2023-09-12T06:54:17;28.13;;;16.38;;
65924;SDS011;66010;52.084;5.412;2023-09-12T06:56:44;33.58;;;18.85;;
65924;SDS011;66010;52.084;5.412;2023-09-12T06:59:11;33.75;;;18.73;;
65924;SDS011;66010;52.084;5.412;2023-09-12T07:01:37;31.95;;;18.83;;
65924;SDS011;66010;52.084;5.412;2023-09-12T07:04:04;35.65;;;20.48;;
65924;SDS011;66010;52.084;5.412;2023-09-12T07:06:31;24.25;;;13.57;;
65924;SDS011;66010;52.084;5.412;2023-09-12T07:08:59;21.60;;;12.13;;
65924;SDS011;66010;52.084;5.412;2023-09-12T07:11:26;23.02;;;11.82;;
65924;SDS011;66010;52.084;5.412;2023-09-12T07:13:52;21.25;;;11.60;;
65924;SDS011;66010;52.084;5.412;2023-09-12T07:16:19;21.10;;;11.35;;
65924;SDS011;66010;52.084;5.412;2023-09-12T07:18:49;25.55;;;10.75;;
65924;SDS011;66010;52.084;5.412;2023-09-12T07:21:19;17.67;;;9.75;;
65924;SDS011;66010;52.084;5.412;2023-09-12T07:23:47;18.60;;;10.50;;
65924;SDS011;66010;52.084;5.412;2023-09-12T07:26:14;18.23;;;9.77;;
65924;SDS011;66010;52.084;5.412;2023-09-12T07:28:41;18.45;;;9.55;;
65924;SDS011;66010;52.084;5.412;2023-09-12T07:31:07;18.40;;;9.80;;
65924;SDS011;66010;52.084;5.412;2023-09-12T07:33:34;16.88;;;9.07;;
65924;SDS011;66010;52.084;5.412;2023-09-12T07:36:01;17.85;;;8.88;;
65924;SDS011;66010;52.084;5.412;2023-09-12T07:38:29;13.10;;;7.15;;
65924;SDS011;66010;52.084;5.412;2023-09-12T07:40:57;14.95;;;7.45;;
65924;SDS011;66010;52.084;5.412;2023-09-12T07:43:24;13.50;;;6.68;;
65924;SDS011;66010;52.084;5.412;2023-09-12T07:45:54;14.18;;;7.05;;
65924;SDS011;66010;52.084;5.412;2023-09-12T07:48:21;13.13;;;6.95;;
65924;SDS011;66010;52.084;5.412;2023-09-12T07:50:48;13.55;;;6.57;;
65924;SDS011;66010;52.084;5.412;2023-09-12T07:53:14;13.65;;;7.03;;
65924;SDS011;66010;52.084;5.412;2023-09-12T07:55:41;16.60;;;8.85;;
65924;SDS011;66010;52.084;5.412;2023-09-12T07:58:14;14.95;;;7.90;;
65924;SDS011;66010;52.084;5.412;2023-09-12T08:00:41;17.33;;;9.75;;
65924;SDS011;66010;52.084;5.412;2023-09-12T08:03:08;14.73;;;7.43;;
65924;SDS011;66010;52.084;5.412;2023-09-12T08:05:35;17.77;;;9.38;;
65924;SDS011;66010;52.084;5.412;2023-09-12T08:08:01;16.67;;;8.30;;
65924;SDS011;66010;52.084;5.412;2023-09-12T08:10:28;19.05;;;9.63;;
65924;SDS011;66010;52.084;5.412;2023-09-12T08:15:22;18.05;;;8.82;;
65924;SDS011;66010;52.084;5.412;2023-09-12T08:17:48;17.95;;;9.50;;
65924;SDS011;66010;52.084;5.412;2023-09-12T08:20:19;15.63;;;8.35;;
65924;SDS011;66010;52.084;5.412;2023-09-12T08:22:46;15.43;;;8.15;;
65924;SDS011;66010;52.084;5.412;2023-09-12T08:25:13;15.57;;;8.10;;
65924;SDS011;66010;52.084;5.412;2023-09-12T08:27:41;18.27;;;9.13;;
65924;SDS011;66010;52.084;5.412;2023-09-12T08:30:10;20.92;;;10.48;;
65924;SDS011;66010;52.084;5.412;2023-09-12T08:32:37;16.48;;;8.45;;
65924;SDS011;66010;52.084;5.412;2023-09-12T08:35:06;16.65;;;8.07;;
65924;SDS011;66010;52.084;5.412;2023-09-12T08:37:33;18.13;;;9.15;;
65924;SDS011;66010;52.084;5.412;2023-09-12T08:40:00;16.88;;;7.82;;
65924;SDS011;66010;52.084;5.412;2023-09-12T08:42:27;17.92;;;9.10;;
65924;SDS011;66010;52.084;5.412;2023-09-12T08:44:55;15.40;;;8.55;;
65924;SDS011;66010;52.084;5.412;2023-09-12T08:47:22;17.83;;;9.73;;
65924;SDS011;66010;52.084;5.412;2023-09-12T08:49:49;17.65;;;8.73;;
65924;SDS011;66010;52.084;5.412;2023-09-12T08:52:16;18.70;;;9.77;;
65924;SDS011;66010;52.084;5.412;2023-09-12T08:54:42;19.38;;;9.93;;
65924;SDS011;66010;52.084;5.412;2023-09-12T08:57:09;17.33;;;9.52;;
65924;SDS011;66010;52.084;5.412;2023-09-12T08:59:37;22.42;;;12.05;;
65924;SDS011;66010;52.084;5.412;2023-09-12T09:02:04;13.80;;;7.47;;
65924;SDS011;66010;52.084;5.412;2023-09-12T09:04:33;13.50;;;6.47;;
65924;SDS011;66010;52.084;5.412;2023-09-12T09:07:01;16.70;;;8.13;;
65924;SDS011;66010;52.084;5.412;2023-09-12T09:09:29;25.05;;;14.13;;
65924;SDS011;66010;52.084;5.412;2023-09-12T09:11:56;24.45;;;13.73;;
65924;SDS011;66010;52.084;5.412;2023-09-12T09:14:23;26.88;;;15.40;;
65924;SDS011;66010;52.084;5.412;2023-09-12T09:16:50;26.88;;;14.00;;
65924;SDS011;66010;52.084;5.412;2023-09-12T09:19:17;22.95;;;13.10;;
65924;SDS011;66010;52.084;5.412;2023-09-12T09:21:45;22.13;;;12.40;;
65924;SDS011;66010;52.084;5.412;2023-09-12T09:24:12;25.67;;;14.75;;
65924;SDS011;66010;52.084;5.412;2023-09-12T09:29:09;19.67;;;11.75;;
65924;SDS011;66010;52.084;5.412;2023-09-12T09:31:43;17.65;;;9.05;;
65924;SDS011;66010;52.084;5.412;2023-09-12T09:34:14;13.75;;;7.72;;
65924;SDS011;66010;52.084;5.412;2023-09-12T09:39:10;27.13;;;14.65;;
65924;SDS011;66010;52.084;5.412;2023-09-12T09:41:37;19.10;;;10.98;;
65924;SDS011;66010;52.084;5.412;2023-09-12T09:44:09;23.88;;;13.40;;
65924;SDS011;66010;52.084;5.412;2023-09-12T09:46:36;24.00;;;13.05;;
65924;SDS011;66010;52.084;5.412;2023-09-12T09:49:04;31.88;;;17.30;;
65924;SDS011;66010;52.084;5.412;2023-09-12T09:51:32;26.75;;;15.35;;
65924;SDS011;66010;52.084;5.412;2023-09-12T09:54:07;30.58;;;17.42;;
65924;SDS011;66010;52.084;5.412;2023-09-12T09:56:44;26.63;;;14.88;;
65924;SDS011;66010;52.084;5.412;2023-09-12T09:59:13;22.33;;;12.75;;
65924;SDS011;66010;52.084;5.412;2023-09-12T10:01:40;20.00;;;11.63;;
65924;SDS011;66010;52.084;5.412;2023-09-12T10:04:08;19.30;;;11.70;;
65924;SDS011;66010;52.084;5.412;2023-09-12T10:06:36;29.80;;;15.73;;
65924;SDS011;66010;52.084;5.412;2023-09-12T10:09:06;22.80;;;13.10;;
65924;SDS011;66010;52.084;5.412;2023-09-12T10:11:33;32.70;;;17.02;;
65924;SDS011;66010;52.084;5.412;2023-09-12T10:14:02;19.08;;;11.32;;
65924;SDS011;66010;52.084;5.412;2023-09-12T10:16:42;23.50;;;12.15;;
65924;SDS011;66010;52.084;5.412;2023-09-12T10:19:19;14.80;;;8.82;;
65924;SDS011;66010;52.084;5.412;2023-09-12T10:21:48;25.85;;;13.65;;
65924;SDS011;66010;52.084;5.412;2023-09-12T10:24:15;24.15;;;12.95;;
65924;SDS011;66010;52.084;5.412;2023-09-12T10:26:45;19.05;;;10.63;;
65924;SDS011;66010;52.084;5.412;2023-09-12T10:29:13;16.70;;;9.75;;
65924;SDS011;66010;52.084;5.412;2023-09-12T10:31:40;14.88;;;8.18;;
65924;SDS011;66010;52.084;5.412;2023-09-12T10:34:10;16.10;;;9.15;;
65924;SDS011;66010;52.084;5.412;2023-09-12T10:36:37;15.63;;;8.70;;
65924;SDS011;66010;52.084;5.412;2023-09-12T10:39:04;17.25;;;9.48;;
65924;SDS011;66010;52.084;5.412;2023-09-12T10:41:32;16.00;;;8.90;;
65924;SDS011;66010;52.084;5.412;2023-09-12T10:46:25;21.55;;;12.32;;
65924;SDS011;66010;52.084;5.412;2023-09-12T10:48:52;17.63;;;9.55;;
65924;SDS011;66010;52.084;5.412;2023-09-12T10:51:19;16.58;;;8.35;;
65924;SDS011;66010;52.084;5.412;2023-09-12T10:53:50;16.33;;;9.15;;
65924;SDS011;66010;52.084;5.412;2023-09-12T10:56:19;13.25;;;7.80;;
65924;SDS011;66010;52.084;5.412;2023-09-12T11:01:44;17.20;;;9.38;;
65924;SDS011;66010;52.084;5.412;2023-09-12T11:06:51;21.05;;;12.70;;
65924;SDS011;66010;52.084;5.412;2023-09-12T11:09:19;16.48;;;9.80;;
65924;SDS011;66010;52.084;5.412;2023-09-12T11:11:48;17.98;;;10.68;;
65924;SDS011;66010;52.084;5.412;2023-09-12T11:14:15;20.05;;;11.90;;
65924;SDS011;66010;52.084;5.412;2023-09-12T11:16:43;16.95;;;9.50;;
65924;SDS011;66010;52.084;5.412;2023-09-12T11:19:30;15.80;;;9.13;;
65924;SDS011;66010;52.084;5.412;2023-09-12T11:22:20;18.70;;;10.88;;
65924;SDS011;66010;52.084;5.412;2023-09-12T11:24:47;15.98;;;9.38;;
65924;SDS011;66010;52.084;5.412;2023-09-12T11:27:14;19.02;;;11.43;;
65924;SDS011;66010;52.084;5.412;2023-09-12T11:29:40;14.00;;;7.72;;
65924;SDS011;66010;52.084;5.412;2023-09-12T11:32:07;17.45;;;10.82;;
65924;SDS011;66010;52.084;5.412;2023-09-12T11:34:38;11.70;;;6.38;;
65924;SDS011;66010;52.084;5.412;2023-09-12T11:37:05;14.85;;;8.52;;
65924;SDS011;66010;52.084;5.412;2023-09-12T11:39:35;13.52;;;7.85;;
65924;SDS011;66010;52.084;5.412;2023-09-12T11:42:03;16.17;;;8.45;;
65924;SDS011;66010;52.084;5.412;2023-09-12T11:44:31;12.27;;;6.78;;
65924;SDS011;66010;52.084;5.412;2023-09-12T11:47:01;11.85;;;7.15;;
65924;SDS011;66010;52.084;5.412;2023-09-12T11:49:36;11.95;;;7.13;;
65924;SDS011;66010;52.084;5.412;2023-09-12T11:52:07;10.55;;;6.55;;
65924;SDS011;66010;52.084;5.412;2023-09-12T11:54:34;11.18;;;6.55;;
65924;SDS011;66010;52.084;5.412;2023-09-12T11:57:01;12.43;;;6.70;;
65924;SDS011;66010;52.084;5.412;2023-09-12T11:59:28;12.57;;;6.97;;
65924;SDS011;66010;52.084;5.412;2023-09-12T12:01:55;12.38;;;6.53;;
65924;SDS011;66010;52.084;5.412;2023-09-12T12:04:25;11.02;;;6.07;;
65924;SDS011;66010;52.084;5.412;2023-09-12T12:06:54;12.02;;;6.43;;
65924;SDS011;66010;52.084;5.412;2023-09-12T12:09:21;11.23;;;6.60;;
65924;SDS011;66010;52.084;5.412;2023-09-12T12:11:48;11.77;;;6.13;;
65924;SDS011;66010;52.084;5.412;2023-09-12T12:14:17;10.20;;;5.78;;
65924;SDS011;66010;52.084;5.412;2023-09-12T12:16:46;10.07;;;5.70;;
65924;SDS011;66010;52.084;5.412;2023-09-12T12:19:13;12.77;;;7.05;;
65924;SDS011;66010;52.084;5.412;2023-09-12T12:24:14;10.98;;;5.45;;
65924;SDS011;66010;52.084;5.412;2023-09-12T12:26:42;10.40;;;5.72;;
65924;SDS011;66010;52.084;5.412;2023-09-12T12:29:11;10.02;;;5.63;;
65924;SDS011;66010;52.084;5.412;2023-09-12T12:31:39;11.48;;;6.25;;
65924;SDS011;66010;52.084;5.412;2023-09-12T12:36:55;11.80;;;6.53;;
65924;SDS011;66010;52.084;5.412;2023-09-12T12:39:24;10.50;;;5.45;;
65924;SDS011;66010;52.084;5.412;2023-09-12T12:41:52;9.57;;;5.38;;
65924;SDS011;66010;52.084;5.412;2023-09-12T12:44:19;9.38;;;4.68;;
65924;SDS011;66010;52.084;5.412;2023-09-12T12:46:52;8.50;;;4.80;;
65924;SDS011;66010;52.084;5.412;2023-09-12T12:51:45;9.15;;;3.95;;
65924;SDS011;66010;52.084;5.412;2023-09-12T12:54:14;8.85;;;4.45;;
65924;SDS011;66010;52.084;5.412;2023-09-12T12:56:42;7.00;;;3.75;;
65924;SDS011;66010;52.084;5.412;2023-09-12T12:59:10;8.05;;;4.15;;
65924;SDS011;66010;52.084;5.412;2023-09-12T13:01:37;11.52;;;4.40;;
65924;SDS011;66010;52.084;5.412;2023-09-12T13:04:07;11.23;;;4.35;;
65924;SDS011;66010;52.084;5.412;2023-09-12T13:06:35;14.25;;;6.10;;
65924;SDS011;66010;52.084;5.412;2023-09-12T13:09:03;9.63;;;4.82;;
65924;SDS011;66010;52.084;5.412;2023-09-12T13:11:32;8.88;;;4.05;;
65924;SDS011;66010;52.084;5.412;2023-09-12T13:14:01;9.55;;;4.30;;
65924;SDS011;66010;52.084;5.412;2023-09-12T13:16:29;9.65;;;4.53;;
65924;SDS011;66010;52.084;5.412;2023-09-12T13:18:56;9.07;;;4.88;;
65924;SDS011;66010;52.084;5.412;2023-09-12T13:21:22;11.15;;;5.28;;
65924;SDS011;66010;52.084;5.412;2023-09-12T13:23:49;9.65;;;4.75;;
65924;SDS011;66010;52.084;5.412;2023-09-12T13:26:16;11.25;;;5.40;;
65924;SDS011;66010;52.084;5.412;2023-09-12T13:28:42;11.35;;;4.90;;
65924;SDS011;66010;52.084;5.412;2023-09-12T13:31:09;8.98;;;5.18;;
65924;SDS011;66010;52.084;5.412;2023-09-12T13:33:36;9.45;;;5.00;;
65924;SDS011;66010;52.084;5.412;2023-09-12T13:36:03;10.57;;;5.05;;
65924;SDS011;66010;52.084;5.412;2023-09-12T13:38:30;13.52;;;6.50;;
65924;SDS011;66010;52.084;5.412;2023-09-12T13:40:56;10.20;;;5.10;;
65924;SDS011;66010;52.084;5.412;2023-09-12T13:43:23;9.50;;;5.68;;
65924;SDS011;66010;52.084;5.412;2023-09-12T13:45:49;9.70;;;5.57;;
65924;SDS011;66010;52.084;5.412;2023-09-12T13:48:16;9.45;;;4.75;;
65924;SDS011;66010;52.084;5.412;2023-09-12T13:50:44;10.18;;;4.93;;
65924;SDS011;66010;52.084;5.412;2023-09-12T13:53:11;9.13;;;4.60;;
65924;SDS011;66010;52.084;5.412;2023-09-12T13:55:38;11.35;;;5.43;;
65924;SDS011;66010;52.084;5.412;2023-09-12T13:58:24;10.80;;;5.15;;
65924;SDS011;66010;52.084;5.412;2023-09-12T14:00:58;9.48;;;5.32;;
65924;SDS011;66010;52.084;5.412;2023-09-12T14:03:25;10.48;;;5.57;;
65924;SDS011;66010;52.084;5.412;2023-09-12T14:05:55;10.45;;;5.07;;
65924;SDS011;66010;52.084;5.412;2023-09-12T14:08:22;10.00;;;5.50;;
65924;SDS011;66010;52.084;5.412;2023-09-12T14:10:49;10.93;;;5.70;;
65924;SDS011;66010;52.084;5.412;2023-09-12T14:13:17;11.88;;;5.50;;
65924;SDS011;66010;52.084;5.412;2023-09-12T14:15:48;10.98;;;6.05;;
65924;SDS011;66010;52.084;5.412;2023-09-12T14:18:17;10.98;;;5.72;;
65924;SDS011;66010;52.084;5.412;2023-09-12T14:20:45;9.77;;;5.30;;
65924;SDS011;66010;52.084;5.412;2023-09-12T14:23:14;9.60;;;4.43;;
65924;SDS011;66010;52.084;5.412;2023-09-12T14:25:41;9.48;;;4.82;;
65924;SDS011;66010;52.084;5.412;2023-09-12T14:28:08;8.73;;;4.43;;
65924;SDS011;66010;52.084;5.412;2023-09-12T14:30:37;9.27;;;4.63;;
65924;SDS011;66010;52.084;5.412;2023-09-12T14:33:04;9.18;;;4.25;;
65924;SDS011;66010;52.084;5.412;2023-09-12T14:35:31;10.07;;;4.05;;
65924;SDS011;66010;52.084;5.412;2023-09-12T14:37:57;9.25;;;4.00;;
65924;SDS011;66010;52.084;5.412;2023-09-12T14:40:28;9.25;;;4.28;;
65924;SDS011;66010;52.084;5.412;2023-09-12T14:42:55;8.98;;;3.95;;
65924;SDS011;66010;52.084;5.412;2023-09-12T14:45:21;8.30;;;3.80;;
65924;SDS011;66010;52.084;5.412;2023-09-12T14:47:48;7.95;;;3.60;;
65924;SDS011;66010;52.084;5.412;2023-09-12T14:50:15;7.88;;;3.60;;
65924;SDS011;66010;52.084;5.412;2023-09-12T14:52:42;7.22;;;3.42;;
65924;SDS011;66010;52.084;5.412;2023-09-12T14:55:10;6.88;;;3.30;;
65924;SDS011;66010;52.084;5.412;2023-09-12T14:57:36;7.43;;;3.22;;
65924;SDS011;66010;52.084;5.412;2023-09-12T15:00:03;7.93;;;3.30;;
65924;SDS011;66010;52.084;5.412;2023-09-12T15:02:30;6.80;;;3.30;;
65924;SDS011;66010;52.084;5.412;2023-09-12T15:05:00;7.43;;;3.25;;
65924;SDS011;66010;52.084;5.412;2023-09-12T15:07:27;6.85;;;3.17;;
65924;SDS011;66010;52.084;5.412;2023-09-12T15:09:56;7.05;;;3.33;;
65924;SDS011;66010;52.084;5.412;2023-09-12T15:12:23;6.85;;;3.25;;
65924;SDS011;66010;52.084;5.412;2023-09-12T15:14:50;8.13;;;3.50;;